Terminal Aerodrome Forecast
Issued by NWS Green Bay, WI

Home | Current Version | Previous Version | Text Only | Print | Product List | Glossary Off
Versions: 1 2 3 4 5 6 7 8 9 10 11 12 13 14 15 16 17 18 19 20 21 22 23 24 25 26 27 28 29 30 31 32 33 34 35 36 37 38 39 40 41 42 43 44 45 46

434
FTUS43 KGRB 300520
TAFGRB
TAF
KGRB 300520Z 3006/0106 04013KT P6SM SCT020
     FM300800 03012KT P6SM SCT020 BKN040
      TEMPO 3008/3010 BKN020
     FM301000 03012KT P6SM BKN015 OVC030
     FM301500 03015G23KT P6SM VCSH BKN015 OVC030
     FM302100 03015G23KT P6SM -SHRA BKN015 OVC030
     FM010100 05012KT 5SM -SHRA BR SCT007 OVC015=

USA.gov is the U.S. government's official web portal to all federal, state and local government web resources and services.